ARE2147 SKRG-SKBO
Flight info
| Callsign | ARE2147 |
|---|---|
| Flight time | 0h 35m |
| Altitude | 21000 |
| Route | ISVAT2B ISVAT ISVAT4W |
| Aircraft | A320/M-SDE3FGHIRWY/LB1 |
Departure
| Time | 2026-05-03 22:28 |
|---|---|
| Airport | Jose Maria Córdova International Airport (SKRG) |
Arrival
| Time | 2026-05-03 23:03 |
|---|---|
| Airport | El Dorado International Airport (SKBO) |
| Time | Latitude | Longitude | Altitude | Speed | Heading |
|---|---|---|---|---|---|
| 2026-05-03 21:58 | 6.16936 | -75.42912 | 6989 ft | 0 kts | 346° |
| 2026-05-03 22:13 | 6.16935 | -75.42912 | 6990 ft | 1 kts | 347° |
| 2026-05-03 22:14 | 6.16921 | -75.42909 | 6989 ft | 2 kts | 346° |
| 2026-05-03 22:14 | 6.16905 | -75.42906 | 6988 ft | 2 kts | 11° |
| 2026-05-03 22:14 | 6.16891 | -75.42911 | 6988 ft | 2 kts | 36° |
| 2026-05-03 22:14 | 6.16881 | -75.42923 | 6988 ft | 2 kts | 62° |
| 2026-05-03 22:15 | 6.16877 | -75.42931 | 6988 ft | 1 kts | 77° |
| 2026-05-03 22:15 | 6.16876 | -75.42937 | 6988 ft | 0 kts | 77° |
| 2026-05-03 22:18 | 6.16877 | -75.42931 | 6988 ft | 1 kts | 77° |
| 2026-05-03 22:18 | 6.16883 | -75.42909 | 6988 ft | 4 kts | 76° |
| 2026-05-03 22:19 | 6.16892 | -75.42871 | 6988 ft | 6 kts | 76° |
| 2026-05-03 22:19 | 6.16904 | -75.42826 | 6988 ft | 7 kts | 74° |
| 2026-05-03 22:19 | 6.16921 | -75.42773 | 6988 ft | 8 kts | 68° |
| 2026-05-03 22:19 | 6.16951 | -75.42721 | 6989 ft | 8 kts | 51° |
| 2026-05-03 22:20 | 6.16994 | -75.42680 | 6990 ft | 7 kts | 39° |
| 2026-05-03 22:20 | 6.17034 | -75.42631 | 6990 ft | 11 kts | 76° |
| 2026-05-03 22:20 | 6.16983 | -75.42551 | 6986 ft | 17 kts | 145° |
| 2026-05-03 22:20 | 6.16870 | -75.42492 | 6980 ft | 15 kts | 168° |
| 2026-05-03 22:21 | 6.16748 | -75.42487 | 6974 ft | 19 kts | 179° |
| 2026-05-03 22:21 | 6.16610 | -75.42484 | 6968 ft | 20 kts | 180° |
| 2026-05-03 22:21 | 6.16470 | -75.42484 | 6966 ft | 12 kts | 179° |
| 2026-05-03 22:21 | 6.16401 | -75.42482 | 6964 ft | 11 kts | 179° |
| 2026-05-03 22:22 | 6.16312 | -75.42481 | 6963 ft | 13 kts | 179° |
| 2026-05-03 22:22 | 6.16208 | -75.42479 | 6962 ft | 16 kts | 179° |
| 2026-05-03 22:22 | 6.16084 | -75.42479 | 6960 ft | 18 kts | 179° |
| 2026-05-03 22:22 | 6.15950 | -75.42479 | 6959 ft | 20 kts | 180° |
| 2026-05-03 22:23 | 6.15802 | -75.42478 | 6957 ft | 21 kts | 179° |
| 2026-05-03 22:23 | 6.15656 | -75.42477 | 6959 ft | 19 kts | 180° |
| 2026-05-03 22:23 | 6.15515 | -75.42476 | 6956 ft | 21 kts | 180° |
| 2026-05-03 22:23 | 6.15363 | -75.42477 | 6956 ft | 22 kts | 180° |
| 2026-05-03 22:24 | 6.15210 | -75.42476 | 6954 ft | 22 kts | 179° |
| 2026-05-03 22:24 | 6.15058 | -75.42474 | 6951 ft | 18 kts | 180° |
| 2026-05-03 22:24 | 6.14945 | -75.42473 | 6946 ft | 17 kts | 179° |
| 2026-05-03 22:24 | 6.14853 | -75.42481 | 6942 ft | 14 kts | 162° |
| 2026-05-03 22:25 | 6.14822 | -75.42394 | 6940 ft | 8 kts | 58° |
| 2026-05-03 22:25 | 6.14849 | -75.42364 | 6941 ft | 0 kts | 44° |
| 2026-05-03 22:25 | 6.14858 | -75.42357 | 6942 ft | 2 kts | 40° |
| 2026-05-03 22:26 | 6.14861 | -75.42354 | 6942 ft | 2 kts | 39° |
| 2026-05-03 22:26 | 6.14898 | -75.42329 | 6943 ft | 8 kts | 31° |
| 2026-05-03 22:26 | 6.14965 | -75.42304 | 6945 ft | 11 kts | 5° |
| 2026-05-03 22:26 | 6.14974 | -75.42303 | 6946 ft | 0 kts | 5° |
| 2026-05-03 22:27 | 6.15208 | -75.42303 | 6954 ft | 72 kts | 359° |
| 2026-05-03 22:27 | 6.15963 | -75.42304 | 6963 ft | 141 kts | 359° |
| 2026-05-03 22:27 | 6.17126 | -75.42312 | 7146 ft | 180 kts | 1° |
| 2026-05-03 22:28 | 6.18402 | -75.42310 | 7732 ft | 189 kts | 1° |
| 2026-05-03 22:28 | 6.19693 | -75.42315 | 8568 ft | 188 kts | 1° |
| 2026-05-03 22:28 | 6.20986 | -75.42281 | 9148 ft | 185 kts | 12° |
| 2026-05-03 22:28 | 6.22117 | -75.41673 | 9384 ft | 193 kts | 50° |
| 2026-05-03 22:29 | 6.22682 | -75.40433 | 9652 ft | 202 kts | 85° |
| 2026-05-03 22:29 | 6.22392 | -75.39040 | 9980 ft | 210 kts | 120° |
| 2026-05-03 22:29 | 6.21535 | -75.37863 | 10413 ft | 213 kts | 125° |
| 2026-05-03 22:29 | 6.20647 | -75.36648 | 10865 ft | 216 kts | 124° |
| 2026-05-03 22:30 | 6.19771 | -75.35422 | 11338 ft | 217 kts | 124° |
| 2026-05-03 22:30 | 6.18898 | -75.34197 | 11821 ft | 217 kts | 124° |
| 2026-05-03 22:30 | 6.18023 | -75.32967 | 12342 ft | 217 kts | 123° |
| 2026-05-03 22:30 | 6.17091 | -75.31759 | 12796 ft | 222 kts | 133° |
| 2026-05-03 22:31 | 6.15788 | -75.30842 | 13044 ft | 238 kts | 152° |
| 2026-05-03 22:31 | 6.14129 | -75.30371 | 13221 ft | 259 kts | 167° |
| 2026-05-03 22:31 | 6.12302 | -75.29981 | 13469 ft | 274 kts | 159° |
| 2026-05-03 22:31 | 6.10468 | -75.29325 | 13774 ft | 289 kts | 157° |
| 2026-05-03 22:32 | 6.08545 | -75.28583 | 14081 ft | 304 kts | 156° |
| 2026-05-03 22:32 | 6.06524 | -75.27777 | 14372 ft | 319 kts | 155° |
| 2026-05-03 22:32 | 6.04392 | -75.26914 | 14611 ft | 334 kts | 155° |
| 2026-05-03 22:32 | 6.02193 | -75.26015 | 14848 ft | 349 kts | 155° |
| 2026-05-03 22:33 | 5.99885 | -75.25068 | 15116 ft | 362 kts | 155° |
| 2026-05-03 22:33 | 5.97532 | -75.24101 | 15493 ft | 370 kts | 155° |
| 2026-05-03 22:33 | 5.95146 | -75.23120 | 16024 ft | 372 kts | 155° |
| 2026-05-03 22:33 | 5.92730 | -75.22125 | 16542 ft | 374 kts | 155° |
| 2026-05-03 22:34 | 5.90308 | -75.21127 | 17027 ft | 377 kts | 155° |
| 2026-05-03 22:34 | 5.87868 | -75.20122 | 17508 ft | 379 kts | 155° |
| 2026-05-03 22:34 | 5.85430 | -75.19122 | 17965 ft | 382 kts | 155° |
| 2026-05-03 22:34 | 5.82924 | -75.18091 | 18414 ft | 385 kts | 155° |
| 2026-05-03 22:35 | 5.80458 | -75.17073 | 18816 ft | 389 kts | 155° |
| 2026-05-03 22:35 | 5.77941 | -75.16034 | 19183 ft | 393 kts | 155° |
| 2026-05-03 22:35 | 5.75378 | -75.14974 | 19582 ft | 397 kts | 155° |
| 2026-05-03 22:35 | 5.72821 | -75.13918 | 19980 ft | 399 kts | 155° |
| 2026-05-03 22:36 | 5.70220 | -75.12845 | 20386 ft | 402 kts | 155° |
| 2026-05-03 22:36 | 5.67631 | -75.11779 | 20779 ft | 404 kts | 155° |
| 2026-05-03 22:36 | 5.65008 | -75.10702 | 21069 ft | 407 kts | 155° |
| 2026-05-03 22:36 | 5.62395 | -75.09628 | 21109 ft | 407 kts | 155° |
| 2026-05-03 22:37 | 5.59737 | -75.08534 | 21111 ft | 407 kts | 155° |
| 2026-05-03 22:37 | 5.57115 | -75.07454 | 21109 ft | 408 kts | 155° |
| 2026-05-03 22:37 | 5.54484 | -75.06368 | 21098 ft | 408 kts | 155° |
| 2026-05-03 22:37 | 5.51842 | -75.05280 | 21082 ft | 408 kts | 155° |
| 2026-05-03 22:38 | 5.49234 | -75.04203 | 21077 ft | 408 kts | 155° |
| 2026-05-03 22:38 | 5.46589 | -75.03111 | 21064 ft | 407 kts | 155° |
| 2026-05-03 22:38 | 5.43985 | -75.02036 | 21056 ft | 407 kts | 155° |
| 2026-05-03 22:38 | 5.41339 | -75.00945 | 21041 ft | 402 kts | 155° |
| 2026-05-03 22:39 | 5.38807 | -74.99905 | 21030 ft | 386 kts | 155° |
| 2026-05-03 22:39 | 5.36364 | -74.98888 | 21021 ft | 369 kts | 154° |
| 2026-05-03 22:39 | 5.34029 | -74.97897 | 21021 ft | 367 kts | 154° |
| 2026-05-03 22:39 | 5.31645 | -74.96879 | 21021 ft | 367 kts | 154° |
| 2026-05-03 22:40 | 5.29304 | -74.95882 | 20940 ft | 362 kts | 154° |
| 2026-05-03 22:40 | 5.26985 | -74.94898 | 20560 ft | 360 kts | 154° |
| 2026-05-03 22:40 | 5.24687 | -74.93922 | 20067 ft | 360 kts | 154° |
| 2026-05-03 22:40 | 5.22417 | -74.92921 | 19617 ft | 357 kts | 148° |
| 2026-05-03 22:41 | 5.20419 | -74.91459 | 19188 ft | 348 kts | 132° |
| 2026-05-03 22:41 | 5.18956 | -74.89558 | 19017 ft | 342 kts | 119° |
| 2026-05-03 22:41 | 5.17784 | -74.87503 | 19003 ft | 341 kts | 117° |
| 2026-05-03 22:41 | 5.16653 | -74.85474 | 18971 ft | 327 kts | 117° |
| 2026-05-03 22:42 | 5.15549 | -74.83510 | 18718 ft | 320 kts | 118° |
| 2026-05-03 22:42 | 5.14434 | -74.81579 | 18391 ft | 315 kts | 118° |
| 2026-05-03 22:42 | 5.13350 | -74.79688 | 18020 ft | 312 kts | 115° |
| 2026-05-03 22:42 | 5.12763 | -74.77628 | 17586 ft | 309 kts | 92° |
| 2026-05-03 22:43 | 5.13059 | -74.75532 | 17227 ft | 307 kts | 71° |
| 2026-05-03 22:43 | 5.14134 | -74.73688 | 16818 ft | 310 kts | 50° |
| 2026-05-03 22:43 | 5.15696 | -74.72192 | 16683 ft | 310 kts | 46° |
| 2026-05-03 22:43 | 5.17266 | -74.70718 | 16681 ft | 312 kts | 46° |
| 2026-05-03 22:44 | 5.18849 | -74.69221 | 16694 ft | 313 kts | 46° |
| 2026-05-03 22:44 | 5.20441 | -74.67715 | 16671 ft | 313 kts | 46° |
| 2026-05-03 22:44 | 5.22028 | -74.66212 | 16672 ft | 313 kts | 47° |
| 2026-05-03 22:44 | 5.23611 | -74.64697 | 16677 ft | 312 kts | 50° |
| 2026-05-03 22:45 | 5.24932 | -74.63000 | 16712 ft | 308 kts | 61° |
| 2026-05-03 22:45 | 5.25884 | -74.61083 | 16714 ft | 306 kts | 70° |
| 2026-05-03 22:45 | 5.26639 | -74.59090 | 16702 ft | 307 kts | 71° |
| 2026-05-03 22:45 | 5.27380 | -74.57066 | 16729 ft | 307 kts | 71° |
| 2026-05-03 22:46 | 5.28118 | -74.55064 | 16740 ft | 307 kts | 71° |
| 2026-05-03 22:46 | 5.28864 | -74.53055 | 16758 ft | 307 kts | 71° |
| 2026-05-03 22:46 | 5.29603 | -74.51079 | 16749 ft | 306 kts | 71° |
| 2026-05-03 22:46 | 5.30350 | -74.49062 | 16774 ft | 306 kts | 73° |
| 2026-05-03 22:47 | 5.30828 | -74.46981 | 16798 ft | 304 kts | 84° |
| 2026-05-03 22:47 | 5.30898 | -74.44868 | 16800 ft | 304 kts | 93° |
| 2026-05-03 22:47 | 5.30743 | -74.42783 | 16821 ft | 304 kts | 96° |
| 2026-05-03 22:47 | 5.30201 | -74.40753 | 16828 ft | 304 kts | 119° |
| 2026-05-03 22:48 | 5.28771 | -74.39162 | 16871 ft | 309 kts | 142° |
| 2026-05-03 22:48 | 5.26826 | -74.38211 | 16865 ft | 316 kts | 162° |
| 2026-05-03 22:48 | 5.24638 | -74.38027 | 16823 ft | 321 kts | 181° |
| 2026-05-03 22:48 | 5.22395 | -74.38279 | 16839 ft | 326 kts | 182° |
| 2026-05-03 22:49 | 5.20127 | -74.38554 | 16773 ft | 328 kts | 182° |
| 2026-05-03 22:49 | 5.17842 | -74.38817 | 16551 ft | 326 kts | 182° |
| 2026-05-03 22:49 | 5.16341 | -74.38985 | 16388 ft | 324 kts | 182° |
| 2026-05-03 22:49 | 5.14857 | -74.39146 | 16229 ft | 323 kts | 182° |
| 2026-05-03 22:50 | 5.11106 | -74.39544 | 15862 ft | 321 kts | 182° |
| 2026-05-03 22:50 | 5.08894 | -74.39774 | 15639 ft | 320 kts | 182° |
| 2026-05-03 22:50 | 5.06694 | -74.40002 | 15414 ft | 319 kts | 182° |
| 2026-05-03 22:50 | 5.04485 | -74.40230 | 15184 ft | 318 kts | 182° |
| 2026-05-03 22:51 | 5.02265 | -74.40461 | 15004 ft | 313 kts | 182° |
| 2026-05-03 22:51 | 5.00136 | -74.40685 | 14990 ft | 298 kts | 182° |
| 2026-05-03 22:51 | 4.98114 | -74.40897 | 15006 ft | 292 kts | 181° |
| 2026-05-03 22:51 | 4.96073 | -74.41106 | 14986 ft | 292 kts | 180° |
| 2026-05-03 22:52 | 4.94080 | -74.40937 | 14960 ft | 282 kts | 156° |
| 2026-05-03 22:52 | 4.92434 | -74.39964 | 14992 ft | 275 kts | 132° |
| 2026-05-03 22:52 | 4.91347 | -74.38422 | 14983 ft | 270 kts | 110° |
| 2026-05-03 22:52 | 4.90944 | -74.36605 | 14781 ft | 268 kts | 92° |
| 2026-05-03 22:53 | 4.90883 | -74.34745 | 14579 ft | 269 kts | 92° |
| 2026-05-03 22:53 | 4.90820 | -74.32870 | 14374 ft | 269 kts | 92° |
| 2026-05-03 22:53 | 4.90747 | -74.31001 | 14166 ft | 268 kts | 93° |
| 2026-05-03 22:53 | 4.90346 | -74.29192 | 13845 ft | 270 kts | 116° |
| 2026-05-03 22:54 | 4.89165 | -74.27757 | 13609 ft | 270 kts | 142° |
| 2026-05-03 22:54 | 4.87454 | -74.26955 | 13587 ft | 278 kts | 166° |
| 2026-05-03 22:54 | 4.85480 | -74.26942 | 13577 ft | 287 kts | 188° |
| 2026-05-03 22:54 | 4.83556 | -74.27435 | 13564 ft | 281 kts | 192° |
| 2026-05-03 22:55 | 4.81705 | -74.27949 | 13556 ft | 272 kts | 191° |
| 2026-05-03 22:55 | 4.79874 | -74.28451 | 13554 ft | 272 kts | 191° |
| 2026-05-03 22:55 | 4.78020 | -74.28950 | 13549 ft | 273 kts | 191° |
| 2026-05-03 22:55 | 4.76180 | -74.29439 | 13547 ft | 272 kts | 191° |
| 2026-05-03 22:56 | 4.74345 | -74.29926 | 13547 ft | 273 kts | 191° |
| 2026-05-03 22:56 | 4.72518 | -74.30410 | 13540 ft | 272 kts | 189° |
| 2026-05-03 22:56 | 4.70659 | -74.30550 | 13517 ft | 260 kts | 163° |
| 2026-05-03 22:56 | 4.69078 | -74.29871 | 13526 ft | 235 kts | 137° |
| 2026-05-03 22:57 | 4.68023 | -74.28741 | 13550 ft | 214 kts | 125° |
| 2026-05-03 22:57 | 4.67113 | -74.27585 | 13565 ft | 210 kts | 125° |
| 2026-05-03 22:57 | 4.66205 | -74.26442 | 13649 ft | 209 kts | 125° |
| 2026-05-03 22:57 | 4.65296 | -74.25307 | 13662 ft | 209 kts | 125° |
| 2026-05-03 22:58 | 4.64368 | -74.24150 | 13625 ft | 210 kts | 125° |
| 2026-05-03 22:58 | 4.63457 | -74.23016 | 13638 ft | 210 kts | 126° |
| 2026-05-03 22:58 | 4.62618 | -74.21835 | 13609 ft | 208 kts | 118° |
| 2026-05-03 22:58 | 4.61981 | -74.20523 | 13594 ft | 205 kts | 109° |
| 2026-05-03 22:59 | 4.61559 | -74.19179 | 13345 ft | 200 kts | 104° |
| 2026-05-03 22:59 | 4.61207 | -74.17845 | 12832 ft | 202 kts | 103° |
| 2026-05-03 22:59 | 4.60855 | -74.16469 | 12297 ft | 203 kts | 103° |
| 2026-05-03 22:59 | 4.60501 | -74.15125 | 11933 ft | 197 kts | 103° |
| 2026-05-03 23:00 | 4.60347 | -74.13802 | 11544 ft | 191 kts | 86° |
| 2026-05-03 23:00 | 4.60651 | -74.12540 | 11166 ft | 187 kts | 66° |
| 2026-05-03 23:00 | 4.61351 | -74.11465 | 10789 ft | 183 kts | 47° |
| 2026-05-03 23:00 | 4.62348 | -74.10695 | 10418 ft | 178 kts | 27° |
| 2026-05-03 23:01 | 4.63484 | -74.10301 | 10057 ft | 171 kts | 9° |
| 2026-05-03 23:01 | 4.64628 | -74.10268 | 9730 ft | 161 kts | 350° |
| 2026-05-03 23:01 | 4.65700 | -74.10535 | 9417 ft | 154 kts | 341° |
| 2026-05-03 23:01 | 4.66654 | -74.10977 | 9209 ft | 151 kts | 319° |
| 2026-05-03 23:02 | 4.67321 | -74.11797 | 8944 ft | 151 kts | 302° |
| 2026-05-03 23:02 | 4.67884 | -74.12685 | 8706 ft | 151 kts | 304° |
| 2026-05-03 23:02 | 4.68492 | -74.13534 | 8556 ft | 151 kts | 305° |
| 2026-05-03 23:02 | 4.69129 | -74.14376 | 8420 ft | 151 kts | 305° |
| 2026-05-03 23:03 | 4.69720 | -74.15163 | 8367 ft | 123 kts | 307° |
| 2026-05-03 23:03 | 4.70169 | -74.15747 | 8365 ft | 89 kts | 307° |
| 2026-05-03 23:03 | 4.70421 | -74.16084 | 8358 ft | 28 kts | 307° |
| 2026-05-03 23:03 | 4.70452 | -74.16060 | 8358 ft | 7 kts | 146° |
| 2026-05-03 23:04 | 4.70426 | -74.16035 | 8358 ft | 3 kts | 131° |
| 2026-05-03 23:04 | 4.70413 | -74.16015 | 8359 ft | 5 kts | 112° |
| 2026-05-03 23:04 | 4.70425 | -74.15959 | 8360 ft | 12 kts | 50° |
| 2026-05-03 23:04 | 4.70466 | -74.15925 | 8361 ft | 0 kts | 37° |
| 2026-05-03 23:06 | 4.70470 | -74.15922 | 8361 ft | 1 kts | 38° |
| 2026-05-03 23:06 | 4.70490 | -74.15906 | 8361 ft | 5 kts | 40° |
| 2026-05-03 23:06 | 4.70510 | -74.15861 | 8362 ft | 9 kts | 95° |
| 2026-05-03 23:07 | 4.70474 | -74.15797 | 8363 ft | 12 kts | 128° |
| 2026-05-03 23:07 | 4.70415 | -74.15722 | 8365 ft | 14 kts | 128° |
| 2026-05-03 23:07 | 4.70350 | -74.15636 | 8367 ft | 16 kts | 126° |
| 2026-05-03 23:07 | 4.70280 | -74.15541 | 8369 ft | 17 kts | 126° |
| 2026-05-03 23:08 | 4.70209 | -74.15444 | 8370 ft | 17 kts | 126° |
| 2026-05-03 23:08 | 4.70132 | -74.15343 | 8370 ft | 18 kts | 129° |
| 2026-05-03 23:08 | 4.70052 | -74.15242 | 8370 ft | 17 kts | 126° |
| 2026-05-03 23:08 | 4.69977 | -74.15142 | 8370 ft | 18 kts | 127° |
| 2026-05-03 23:09 | 4.69897 | -74.15032 | 8369 ft | 18 kts | 126° |
| 2026-05-03 23:09 | 4.69842 | -74.14952 | 8368 ft | 12 kts | 125° |
| 2026-05-03 23:09 | 4.69803 | -74.14897 | 8368 ft | 5 kts | 108° |
| 2026-05-03 23:09 | 4.69818 | -74.14861 | 8368 ft | 7 kts | 42° |
| 2026-05-03 23:10 | 4.69861 | -74.14826 | 8369 ft | 8 kts | 38° |
| 2026-05-03 23:10 | 4.69907 | -74.14792 | 8370 ft | 8 kts | 36° |
| 2026-05-03 23:10 | 4.69953 | -74.14758 | 8371 ft | 8 kts | 36° |
| 2026-05-03 23:10 | 4.70010 | -74.14718 | 8371 ft | 10 kts | 36° |
| 2026-05-03 23:11 | 4.70075 | -74.14668 | 8371 ft | 12 kts | 37° |
| 2026-05-03 23:11 | 4.70139 | -74.14613 | 8372 ft | 10 kts | 60° |
| 2026-05-03 23:11 | 4.70104 | -74.14558 | 8373 ft | 11 kts | 164° |
| 2026-05-03 23:11 | 4.70037 | -74.14513 | 8374 ft | 11 kts | 126° |
| 2026-05-03 23:12 | 4.69992 | -74.14449 | 8375 ft | 6 kts | 124° |
| 2026-05-03 23:12 | 4.69998 | -74.14409 | 8375 ft | 7 kts | 54° |
| 2026-05-03 23:12 | 4.70030 | -74.14379 | 8375 ft | 0 kts | 35° |
| 2026-05-03 23:12 | 4.70031 | -74.14378 | 8375 ft | 0 kts | 35° |